createdAt,value
2018-03-07T00:00:28.948Z,6.77
2018-03-07T00:01:28.684Z,6.88
2018-03-07T00:02:28.674Z,6.79
2018-03-07T00:03:28.673Z,6.79
2018-03-07T00:04:28.937Z,6.77
2018-03-07T00:05:28.393Z,6.77
2018-03-07T00:06:28.647Z,6.89
2018-03-07T00:07:28.847Z,6.92
2018-03-07T00:08:28.632Z,6.93
2018-03-07T00:09:28.654Z,6.93
2018-03-07T00:10:28.627Z,6.89
2018-03-07T00:11:28.356Z,6.89
2018-03-07T00:12:28.599Z,6.88
2018-03-07T00:13:29.128Z,6.78
2018-03-07T00:14:28.848Z,6.87
2018-03-07T00:15:28.544Z,6.78
2018-03-07T00:16:28.775Z,6.72
2018-03-07T00:17:28.651Z,6.77
2018-03-07T00:18:28.589Z,6.77
2018-03-07T00:19:28.829Z,6.78
2018-03-07T00:20:28.555Z,6.74
2018-03-07T00:21:28.556Z,6.7
2018-03-07T00:22:29.403Z,6.64
2018-03-07T00:23:28.529Z,6.64
2018-03-07T00:24:28.288Z,6.54
2018-03-07T00:25:28.784Z,6.48
2018-03-07T00:26:28.522Z,6.56
2018-03-07T00:27:28.513Z,6.51
2018-03-07T00:28:28.546Z,6.51
2018-03-07T00:29:28.501Z,6.49
2018-03-07T00:30:28.503Z,6.51
2018-03-07T00:31:28.242Z,6.54
2018-03-07T00:32:28.742Z,6.48
2018-03-07T00:33:28.701Z,6.48
2018-03-07T00:34:28.473Z,6.51
2018-03-07T00:35:28.706Z,6.59
2018-03-07T00:36:28.696Z,6.51
2018-03-07T00:37:28.452Z,6.54
2018-03-07T00:38:28.178Z,6.56
2018-03-07T00:39:28.731Z,6.48
2018-03-07T00:40:28.504Z,6.51
2018-03-07T00:41:28.703Z,6.54
2018-03-07T00:42:28.494Z,6.64
2018-03-07T00:44:19.908Z,6.48
2018-03-07T00:45:30.982Z,6.46
2018-03-07T00:46:30.126Z,6.45
2018-03-07T00:47:10.737Z,6.39
2018-03-07T00:48:02.805Z,6.45
2018-03-07T00:49:02.816Z,6.38
2018-03-07T00:50:16.247Z,6.24
2018-03-07T00:51:03.054Z,6.28
2018-03-07T00:52:03.022Z,6.28
2018-03-07T00:53:04.846Z,6.11
2018-03-07T00:54:02.762Z,6.14
2018-03-07T00:55:02.994Z,6.04
2018-03-07T00:56:02.984Z,5.98
2018-03-07T00:57:02.986Z,5.99
2018-03-07T00:58:02.985Z,6.01
2018-03-07T00:59:02.957Z,5.91
2018-03-07T01:00:02.488Z,5.94
2018-03-07T01:01:02.456Z,5.89
2018-03-07T01:02:02.967Z,5.93
2018-03-07T01:03:02.715Z,5.91
2018-03-07T01:04:02.709Z,5.91
2018-03-07T01:05:02.739Z,5.91
2018-03-07T01:06:02.940Z,5.87
2018-03-07T01:07:03.002Z,5.84
2018-03-07T01:08:02.930Z,5.83
2018-03-07T01:09:02.940Z,5.84
2018-03-07T01:10:02.932Z,5.84
2018-03-07T01:11:02.653Z,5.76
2018-03-07T01:12:02.916Z,5.68
2018-03-07T01:13:02.855Z,5.68
2018-03-07T01:14:02.846Z,5.57
2018-03-07T01:15:02.589Z,5.56
2018-03-07T01:16:02.624Z,5.57
2018-03-07T01:17:02.576Z,5.57
2018-03-07T01:18:02.835Z,5.56
2018-03-07T01:19:02.824Z,5.46
2018-03-07T01:20:02.316Z,5.48
2018-03-07T01:21:02.346Z,5.47
2018-03-07T01:22:02.611Z,5.35
2018-03-07T01:23:03.012Z,5.41
2018-03-07T01:24:02.517Z,5.3
2018-03-07T01:25:02.778Z,5.35
2018-03-07T01:26:02.511Z,5.29
2018-03-07T01:27:02.772Z,5.23
2018-03-07T01:28:02.747Z,5.23
2018-03-07T01:29:02.745Z,5.28
2018-03-07T01:30:02.742Z,5.29
2018-03-07T01:31:02.520Z,5.18
2018-03-07T01:32:02.467Z,5.11
2018-03-07T01:33:02.714Z,5.15
2018-03-07T01:34:02.462Z,5.12
2018-03-07T01:35:02.701Z,5.11
2018-03-07T01:36:02.191Z,5.05
2018-03-07T01:37:02.685Z,5.05
2018-03-07T01:38:02.435Z,4.99
2018-03-07T01:39:02.410Z,4.99
2018-03-07T01:40:02.657Z,4.97
2018-03-07T01:41:02.396Z,4.94
2018-03-07T01:42:02.384Z,5.02
2018-03-07T01:43:02.637Z,4.93
2018-03-07T01:44:02.373Z,4.9
2018-03-07T01:45:02.647Z,4.96
2018-03-07T01:46:02.402Z,4.9
2018-03-07T01:47:02.612Z,4.9
2018-03-07T01:48:02.583Z,4.96
2018-03-07T01:49:02.576Z,4.84
2018-03-07T01:50:02.336Z,4.86
2018-03-07T01:51:02.322Z,4.78
2018-03-07T01:52:02.576Z,4.82
2018-03-07T01:53:02.300Z,4.74
2018-03-07T01:54:02.281Z,4.74
2018-03-07T01:55:02.025Z,4.62
2018-03-07T01:56:02.265Z,4.62
2018-03-07T01:57:02.268Z,4.53
2018-03-07T01:58:02.264Z,4.52
2018-03-07T01:59:02.240Z,4.55
2018-03-07T02:00:02.252Z,4.49
2018-03-07T02:01:02.240Z,4.49
2018-03-07T02:02:02.485Z,4.45
2018-03-07T02:03:02.476Z,4.37
2018-03-07T02:04:02.462Z,4.34
2018-03-07T02:05:02.186Z,4.34
2018-03-07T02:06:02.435Z,4.31
2018-03-07T02:07:02.450Z,4.32
2018-03-07T02:08:02.458Z,4.31
2018-03-07T02:09:04.220Z,4.26
2018-03-07T02:10:02.154Z,4.24
2018-03-07T02:11:01.962Z,4.34
2018-03-07T02:12:02.392Z,4.26
2018-03-07T02:13:02.391Z,4.31
2018-03-07T02:14:02.376Z,4.34
2018-03-07T02:15:02.366Z,4.28
2018-03-07T02:16:01.856Z,4.31
2018-03-07T02:17:02.340Z,4.34
2018-03-07T02:18:01.841Z,4.34
2018-03-07T02:19:02.073Z,4.32
2018-03-07T02:20:02.322Z,4.32
2018-03-07T02:21:01.808Z,4.32
2018-03-07T02:22:02.048Z,4.37
2018-03-07T02:23:01.786Z,4.35
2018-03-07T02:24:02.882Z,4.32
2018-03-07T02:25:02.030Z,4.3
2018-03-07T02:26:02.016Z,4.24
2018-03-07T02:27:02.002Z,4.24
2018-03-07T02:28:01.994Z,4.12
2018-03-07T02:29:01.996Z,4.22
2018-03-07T02:30:01.994Z,4.16
2018-03-07T02:31:02.231Z,4.14
2018-03-07T02:32:01.972Z,4.06
2018-03-07T02:33:01.987Z,3.99
2018-03-07T02:34:01.974Z,4.08
2018-03-07T02:35:02.228Z,4.04
2018-03-07T02:36:02.185Z,4.06
2018-03-07T02:37:02.181Z,3.96
2018-03-07T02:38:02.178Z,4.02
2018-03-07T02:39:04.265Z,4.01
2018-03-07T02:40:02.147Z,3.98
2018-03-07T02:41:02.154Z,3.98
2018-03-07T02:42:02.169Z,3.98
2018-03-07T02:43:01.886Z,3.98
2018-03-07T02:44:02.144Z,3.92
2018-03-07T02:45:02.120Z,3.92
2018-03-07T02:46:02.114Z,3.86
2018-03-07T02:47:02.089Z,3.81
2018-03-07T02:48:01.843Z,3.83
2018-03-07T02:49:01.901Z,3.95
2018-03-07T02:50:01.901Z,3.98
2018-03-07T02:51:02.054Z,3.81
2018-03-07T02:52:02.052Z,3.84
2018-03-07T02:53:02.026Z,3.86
2018-03-07T02:54:02.091Z,3.81
2018-03-07T02:55:02.015Z,3.83
2018-03-07T02:56:02.016Z,3.81
2018-03-07T02:57:02.014Z,3.92
2018-03-07T02:58:01.747Z,3.86
2018-03-07T02:59:01.983Z,3.8
2018-03-07T03:00:01.732Z,3.84
2018-03-07T03:01:02.010Z,3.73
2018-03-07T03:02:02.006Z,3.8
2018-03-07T03:03:01.965Z,3.81
2018-03-07T03:04:01.952Z,3.84
2018-03-07T03:05:01.943Z,3.76
2018-03-07T03:06:01.962Z,3.74
2018-03-07T03:07:01.661Z,3.76
2018-03-07T03:08:01.898Z,3.76
2018-03-07T03:09:01.517Z,3.74
2018-03-07T03:10:01.627Z,3.66
2018-03-07T03:11:01.616Z,3.69
2018-03-07T03:12:01.858Z,3.69
2018-03-07T03:13:01.891Z,3.78
2018-03-07T03:14:01.879Z,3.84
2018-03-07T03:15:01.523Z,3.76
2018-03-07T03:16:01.851Z,3.77
2018-03-07T03:17:01.816Z,3.81
2018-03-07T03:18:01.804Z,3.86
2018-03-07T03:19:01.318Z,3.83
2018-03-07T03:20:02.337Z,3.86
2018-03-07T03:21:01.579Z,3.88
2018-03-07T03:22:01.528Z,3.8
2018-03-07T03:23:01.756Z,3.77
2018-03-07T03:24:01.504Z,3.77
2018-03-07T03:25:02.338Z,3.74
2018-03-07T03:26:01.478Z,3.6
2018-03-07T03:27:01.216Z,3.63
2018-03-07T03:28:01.755Z,3.59
2018-03-07T03:29:01.451Z,3.5
2018-03-07T03:30:01.443Z,3.48
2018-03-07T03:31:01.500Z,3.45
2018-03-07T03:32:01.680Z,3.53
2018-03-07T03:33:01.675Z,3.41
2018-03-07T03:34:01.664Z,3.36
2018-03-07T03:35:01.647Z,3.5
2018-03-07T03:36:01.638Z,3.51
2018-03-07T03:37:01.386Z,3.42
2018-03-07T03:38:01.629Z,3.47
2018-03-07T03:39:01.622Z,3.41
2018-03-07T03:40:03.521Z,3.45
2018-03-07T03:41:01.449Z,3.55
2018-03-07T03:42:01.587Z,3.44
2018-03-07T03:43:01.573Z,3.41
2018-03-07T03:44:01.574Z,3.48
2018-03-07T03:45:01.566Z,3.42
2018-03-07T03:46:01.294Z,3.47
2018-03-07T03:47:01.540Z,3.32
2018-03-07T03:48:01.536Z,3.28
2018-03-07T03:49:01.322Z,3.31
2018-03-07T03:50:01.254Z,3.44
2018-03-07T03:51:01.521Z,3.51
2018-03-07T03:52:01.586Z,3.48
2018-03-07T03:53:01.233Z,3.58
2018-03-07T03:54:01.472Z,3.47
2018-03-07T03:55:00.966Z,3.48
2018-03-07T03:56:01.456Z,3.47
2018-03-07T03:57:01.453Z,3.59
2018-03-07T03:58:01.453Z,3.63
2018-03-07T03:59:01.436Z,3.65
2018-03-07T04:00:01.158Z,3.59
2018-03-07T04:01:01.407Z,3.65
2018-03-07T04:02:01.158Z,3.78
2018-03-07T04:03:01.401Z,3.83
2018-03-07T04:04:01.380Z,3.77
2018-03-07T04:05:01.118Z,3.78
2018-03-07T04:06:01.362Z,3.91
2018-03-07T04:07:01.102Z,3.91
2018-03-07T04:08:01.352Z,3.81
2018-03-07T04:09:01.346Z,3.81
2018-03-07T04:10:01.071Z,3.81
2018-03-07T04:11:01.614Z,3.88
2018-03-07T04:12:01.298Z,3.84
2018-03-07T04:13:01.294Z,3.81
2018-03-07T04:14:01.287Z,3.86
2018-03-07T04:15:01.286Z,3.8
2018-03-07T04:16:01.265Z,3.86
2018-03-07T04:17:01.258Z,3.95
2018-03-07T04:18:01.245Z,3.88
2018-03-07T04:19:00.985Z,3.84
2018-03-07T04:20:01.236Z,4.02
2018-03-07T04:21:01.231Z,4.01
2018-03-07T04:22:01.210Z,4.12
2018-03-07T04:23:01.197Z,4.16
2018-03-07T04:24:01.194Z,4.23
2018-03-07T04:25:00.923Z,4.3
2018-03-07T04:26:02.027Z,4.22
2018-03-07T04:27:00.908Z,4.31
2018-03-07T04:28:00.904Z,4.38
2018-03-07T04:29:01.148Z,4.35
2018-03-07T04:30:00.624Z,4.35
2018-03-07T04:31:01.120Z,4.35
2018-03-07T04:32:01.111Z,4.4
2018-03-07T04:33:01.108Z,4.41
2018-03-07T04:34:01.093Z,4.49
2018-03-07T04:35:00.841Z,4.48
2018-03-07T04:36:01.124Z,4.5
2018-03-07T04:37:01.070Z,4.49
2018-03-07T04:38:01.072Z,4.56
2018-03-07T04:39:00.800Z,4.58
2018-03-07T04:40:00.544Z,4.6
2018-03-07T04:41:01.244Z,4.59
2018-03-07T04:42:00.535Z,4.5
2018-03-07T04:43:01.025Z,4.63
2018-03-07T04:44:01.009Z,4.63
2018-03-07T04:45:00.496Z,4.63
2018-03-07T04:46:01.005Z,4.67
2018-03-07T04:47:00.983Z,4.52
2018-03-07T04:48:00.980Z,4.45
2018-03-07T04:49:00.979Z,4.53
2018-03-07T04:50:00.965Z,4.53
2018-03-07T04:51:00.966Z,4.53
2018-03-07T04:52:00.683Z,4.58
2018-03-07T04:53:00.948Z,4.56
2018-03-07T04:54:00.937Z,4.59
2018-03-07T04:55:00.654Z,4.63
2018-03-07T04:56:03.108Z,4.56
2018-03-07T04:57:00.894Z,4.77
2018-03-07T04:58:00.655Z,4.67
2018-03-07T04:59:00.886Z,4.74
2018-03-07T05:00:00.886Z,4.8
2018-03-07T05:01:00.942Z,4.87
2018-03-07T05:02:00.614Z,4.94
2018-03-07T05:03:00.857Z,4.84
2018-03-07T05:04:00.845Z,4.99
2018-03-07T05:05:00.562Z,4.92
2018-03-07T05:06:00.577Z,4.89
2018-03-07T05:07:00.567Z,4.82
2018-03-07T05:08:00.817Z,4.82
2018-03-07T05:09:00.804Z,4.8
2018-03-07T05:10:00.784Z,4.9
2018-03-07T05:11:00.520Z,4.93
2018-03-07T05:12:00.508Z,4.96
2018-03-07T05:13:00.816Z,5.05
2018-03-07T05:14:00.749Z,5.02
2018-03-07T05:15:00.724Z,5.02
2018-03-07T05:16:00.715Z,4.99
2018-03-07T05:17:00.709Z,4.96
2018-03-07T05:18:00.704Z,5
2018-03-07T05:19:00.189Z,5.02
2018-03-07T05:20:00.690Z,4.96
2018-03-07T05:21:00.687Z,5.02
2018-03-07T05:22:00.666Z,5.05
2018-03-07T05:23:00.410Z,5.02
2018-03-07T05:24:00.650Z,5
2018-03-07T05:25:00.642Z,5
2018-03-07T05:26:00.384Z,4.96
2018-03-07T05:27:00.629Z,4.94
2018-03-07T05:28:00.626Z,4.93
2018-03-07T05:29:00.613Z,5.04
2018-03-07T05:30:00.619Z,5.04
2018-03-07T05:31:00.594Z,5.04
2018-03-07T05:32:00.584Z,4.97
2018-03-07T05:33:00.584Z,5.02
2018-03-07T05:34:00.565Z,4.96
2018-03-07T05:35:00.564Z,4.99
2018-03-07T05:36:00.547Z,5.02
2018-03-07T05:37:00.295Z,5.04
2018-03-07T05:38:00.277Z,5.07
2018-03-07T05:39:00.529Z,5.02
2018-03-07T05:40:00.273Z,5.1
2018-03-07T05:41:00.255Z,5.11
2018-03-07T05:42:01.549Z,5.07
2018-03-07T05:42:59.989Z,5.11
2018-03-07T05:44:00.253Z,5.12
2018-03-07T05:45:00.218Z,5.15
2018-03-07T05:46:00.219Z,5.07
2018-03-07T05:47:00.555Z,5.15
2018-03-07T05:48:00.462Z,5.07
2018-03-07T05:49:00.186Z,5.08
2018-03-07T05:50:00.185Z,5.17
2018-03-07T05:50:59.916Z,5.15
2018-03-07T05:52:01.773Z,5.15
2018-03-07T05:53:00.405Z,5.2
2018-03-07T05:54:00.153Z,5.28
2018-03-07T05:54:59.881Z,5.29
2018-03-07T05:56:00.396Z,5.26
2018-03-07T05:57:01.243Z,5.28
2018-03-07T05:58:00.375Z,5.25
2018-03-07T05:59:00.368Z,5.25
2018-03-07T06:00:00.355Z,5.3
2018-03-07T06:01:00.108Z,5.28
2018-03-07T06:02:00.079Z,5.29
2018-03-07T06:03:00.336Z,5.28
2018-03-07T06:04:00.314Z,5.28
2018-03-07T06:05:00.054Z,5.26
2018-03-07T06:06:00.298Z,5.3
2018-03-07T06:07:00.383Z,5.23
2018-03-07T06:08:00.293Z,5.41
2018-03-07T06:09:00.024Z,5.36
2018-03-07T06:10:00.013Z,5.44
2018-03-07T06:11:00.258Z,5.33
2018-03-07T06:12:00.264Z,5.36
2018-03-07T06:13:00.244Z,5.44
2018-03-07T06:13:59.999Z,5.43
2018-03-07T06:15:00.276Z,5.46
2018-03-07T06:15:59.964Z,5.53
2018-03-07T06:16:59.956Z,5.47
2018-03-07T06:17:59.953Z,5.5
2018-03-07T06:19:00.219Z,5.46
2018-03-07T06:28:10.049Z,5.64
2018-03-07T06:29:09.269Z,5.56
2018-03-07T06:30:10.278Z,5.59
2018-03-07T06:31:09.774Z,5.61
2018-03-07T06:32:09.495Z,5.61
2018-03-07T06:33:09.778Z,5.65
2018-03-07T06:34:09.828Z,5.61
2018-03-07T06:35:09.920Z,5.62
2018-03-07T06:36:09.463Z,5.59
2018-03-07T06:37:09.694Z,5.62
2018-03-07T06:38:09.698Z,5.62
2018-03-07T06:39:09.680Z,5.66
2018-03-07T06:40:10.121Z,5.64
2018-03-07T06:41:09.703Z,5.64
2018-03-07T06:42:09.154Z,5.68
2018-03-07T06:43:11.509Z,5.75
2018-03-07T06:44:09.377Z,5.66
2018-03-07T06:45:09.788Z,5.73
2018-03-07T06:46:09.621Z,5.76
2018-03-07T06:47:09.609Z,5.76
2018-03-07T06:48:09.346Z,5.79
2018-03-07T06:49:09.591Z,5.76
2018-03-07T06:50:10.029Z,5.84
2018-03-07T06:51:09.575Z,5.9
2018-03-07T06:52:09.583Z,5.91
2018-03-07T06:53:09.568Z,5.93
2018-03-07T06:54:09.549Z,5.93
2018-03-07T06:55:09.715Z,5.98
2018-03-07T06:56:09.546Z,5.99
2018-03-07T06:57:09.281Z,5.97
2018-03-07T06:58:12.180Z,5.93
2018-03-07T06:59:09.263Z,6.01
2018-03-07T07:00:09.630Z,5.93
2018-03-07T07:01:09.514Z,5.94
2018-03-07T07:02:09.247Z,5.98
2018-03-07T07:03:09.488Z,6.01
2018-03-07T07:04:09.229Z,6.07
2018-03-07T07:05:09.663Z,6.08
2018-03-07T07:06:09.214Z,6.07
2018-03-07T07:07:09.461Z,6.11
2018-03-07T07:08:09.228Z,6.12
2018-03-07T07:09:09.461Z,6.07
2018-03-07T07:10:09.435Z,6.11
2018-03-07T07:11:09.428Z,6.04
2018-03-07T07:12:09.163Z,6.02
2018-03-07T07:13:09.413Z,5.97
2018-03-07T07:14:09.422Z,6.05
2018-03-07T07:15:09.822Z,6.04
2018-03-07T07:16:09.405Z,6.07
2018-03-07T07:17:09.402Z,5.98
2018-03-07T07:18:09.136Z,6.11
2018-03-07T07:19:09.471Z,6.11
2018-03-07T07:20:09.784Z,6.11
2018-03-07T07:21:08.864Z,6.14
2018-03-07T07:22:09.460Z,6.12
2018-03-07T07:23:09.076Z,6.19
2018-03-07T07:24:09.083Z,6.08
2018-03-07T07:25:09.435Z,6.14
2018-03-07T07:26:09.073Z,6.28
2018-03-07T07:27:09.311Z,6.28
2018-03-07T07:28:09.305Z,6.22
2018-03-07T07:29:10.158Z,6.3
2018-03-07T07:30:09.431Z,6.24
2018-03-07T07:31:09.281Z,6.35
2018-03-07T07:32:09.031Z,6.35
2018-03-07T07:33:09.271Z,6.39
2018-03-07T07:34:09.264Z,6.42
2018-03-07T07:35:09.455Z,6.46
2018-03-07T07:36:09.064Z,6.51
2018-03-07T07:37:09.259Z,6.49
2018-03-07T07:38:08.717Z,6.57
2018-03-07T07:39:09.243Z,6.59
2018-03-07T07:40:09.632Z,6.59
2018-03-07T07:41:08.946Z,6.67
2018-03-07T07:42:08.951Z,6.66
2018-03-07T07:43:08.953Z,6.69
2018-03-07T07:44:11.899Z,6.75
2018-03-07T07:45:09.282Z,6.79
2018-03-07T07:46:08.917Z,6.92
2018-03-07T07:47:09.270Z,7
2018-03-07T07:48:09.165Z,7.05
2018-03-07T07:49:09.237Z,7.06
2018-03-07T07:50:09.584Z,7.15
2018-03-07T07:51:08.878Z,7.24
2018-03-07T07:52:08.880Z,7.25
2018-03-07T07:53:09.126Z,7.32
2018-03-07T07:54:08.864Z,7.35
2018-03-07T07:55:09.483Z,7.38
2018-03-07T07:56:08.847Z,7.4
2018-03-07T07:57:08.845Z,7.48
2018-03-07T07:58:09.088Z,7.57
2018-03-07T07:59:09.085Z,7.53
2018-03-07T08:00:10.085Z,7.58
2018-03-07T08:01:08.823Z,7.66
2018-03-07T08:02:08.811Z,7.73
2018-03-07T08:03:09.058Z,7.7
2018-03-07T08:04:08.800Z,7.67
2018-03-07T08:05:08.858Z,7.88
2018-03-07T08:06:08.788Z,7.94
2018-03-07T08:07:08.788Z,7.95
2018-03-07T08:08:09.032Z,8.03
2018-03-07T08:09:09.029Z,8.23
2018-03-07T08:10:09.411Z,8.28
2018-03-07T08:11:09.017Z,8.28
2018-03-07T08:12:09.089Z,8.28
2018-03-07T08:13:09.003Z,8.27
2018-03-07T08:14:08.744Z,8.27
2018-03-07T08:15:10.637Z,8.28
2018-03-07T08:16:08.480Z,8.41
2018-03-07T08:17:08.984Z,8.46
2018-03-07T08:18:08.823Z,8.58
2018-03-07T08:19:08.977Z,8.58
2018-03-07T08:20:09.532Z,8.7
2018-03-07T08:21:08.706Z,8.74
2018-03-07T08:22:08.712Z,8.84
2018-03-07T08:23:09.016Z,8.82
2018-03-07T08:24:08.441Z,8.78
2018-03-07T08:25:10.402Z,8.71
2018-03-07T08:26:08.694Z,8.79
2018-03-07T08:27:08.722Z,8.81
2018-03-07T08:28:08.686Z,8.76
2018-03-07T08:29:08.926Z,8.78
2018-03-07T08:30:09.354Z,8.7
2018-03-07T08:31:08.668Z,8.69
2018-03-07T08:32:08.913Z,8.69
2018-03-07T08:33:08.652Z,8.78
2018-03-07T08:34:08.677Z,8.85
2018-03-07T08:35:08.994Z,9
2018-03-07T08:36:08.904Z,9.1
2018-03-07T08:37:08.962Z,9.22
2018-03-07T08:38:08.630Z,9.29
2018-03-07T08:39:08.902Z,9.34
2018-03-07T08:40:09.278Z,9.39
2018-03-07T08:41:08.874Z,9.47
2018-03-07T08:42:08.872Z,9.55
2018-03-07T08:43:08.865Z,9.64
2018-03-07T08:44:08.863Z,9.83
2018-03-07T08:45:09.211Z,9.89
2018-03-07T08:46:10.206Z,9.94
2018-03-07T08:47:08.848Z,9.99
2018-03-07T08:48:08.848Z,10.07
2018-03-07T08:49:08.587Z,9.99
2018-03-07T08:50:08.762Z,9.95
2018-03-07T08:51:08.576Z,10.09
2018-03-07T08:52:08.576Z,10.12
2018-03-07T08:53:08.318Z,9.99
2018-03-07T08:54:08.827Z,10.05
2018-03-07T08:55:09.202Z,10.1
2018-03-07T08:56:08.569Z,10.07
2018-03-07T08:57:08.816Z,10.23
2018-03-07T08:58:08.565Z,10.16
2018-03-07T08:59:08.821Z,10.17
2018-03-07T09:00:09.150Z,10.16
2018-03-07T09:01:08.593Z,10.12
2018-03-07T09:02:08.800Z,10.09
2018-03-07T09:03:08.800Z,10.19
2018-03-07T09:04:08.788Z,10.2
2018-03-07T09:05:08.785Z,10.2
2018-03-07T09:06:08.867Z,10.35
2018-03-07T09:07:08.527Z,10.33
2018-03-07T09:08:08.770Z,10.28
2018-03-07T09:09:08.784Z,10.26
2018-03-07T09:10:08.799Z,10.3
2018-03-07T09:11:08.765Z,10.35
2018-03-07T09:12:08.768Z,10.48
2018-03-07T09:13:08.769Z,10.48
2018-03-07T09:14:08.520Z,10.49
2018-03-07T09:15:09.125Z,10.59
2018-03-07T09:16:09.263Z,10.68
2018-03-07T09:17:08.739Z,10.71
2018-03-07T09:18:08.746Z,10.86
2018-03-07T09:19:08.736Z,11.05
2018-03-07T09:20:09.102Z,11.14
2018-03-07T09:21:08.481Z,11.25
2018-03-07T09:22:08.727Z,11.37
2018-03-07T09:23:08.744Z,11.45
2018-03-07T09:24:08.469Z,11.52
2018-03-07T09:25:09.115Z,11.81
2018-03-07T09:26:08.736Z,11.54
2018-03-07T09:27:08.715Z,11.65
2018-03-07T09:28:08.717Z,11.75
2018-03-07T09:29:08.783Z,11.91
2018-03-07T09:30:08.494Z,11.83
2018-03-07T09:31:08.712Z,11.88
2018-03-07T09:32:08.451Z,11.88
2018-03-07T09:33:08.449Z,11.86
2018-03-07T09:34:08.698Z,11.88
2018-03-07T09:35:09.071Z,11.8
2018-03-07T09:36:08.445Z,11.87
2018-03-07T09:37:08.689Z,11.91
2018-03-07T09:38:08.190Z,11.88
2018-03-07T09:39:08.442Z,11.81
2018-03-07T09:40:09.047Z,11.73
2018-03-07T09:41:08.434Z,11.62
2018-03-07T09:42:08.678Z,11.59
2018-03-07T09:43:08.690Z,11.51
2018-03-07T09:44:08.677Z,11.48
2018-03-07T09:45:09.016Z,11.5
2018-03-07T09:46:08.419Z,11.48
2018-03-07T09:47:08.681Z,11.36
2018-03-07T09:48:08.676Z,11.4
2018-03-07T09:49:08.682Z,11.33
2018-03-07T09:50:09.030Z,11.29
2018-03-07T09:51:08.440Z,11.11
2018-03-07T09:52:08.665Z,11.05
2018-03-07T09:53:08.148Z,10.99
2018-03-07T09:54:08.403Z,10.96
2018-03-07T09:55:09.023Z,10.96
2018-03-07T09:56:08.173Z,10.93
2018-03-07T09:57:08.644Z,10.87
2018-03-07T09:58:08.396Z,10.87
2018-03-07T09:59:08.670Z,10.92
2018-03-07T10:00:08.204Z,10.92
2018-03-07T10:01:08.648Z,11.08
2018-03-07T10:02:09.042Z,11.05
2018-03-07T10:03:08.635Z,11.25
2018-03-07T10:04:08.632Z,11.32
2018-03-07T10:05:08.627Z,11.23
2018-03-07T10:06:08.374Z,11.35
2018-03-07T10:07:08.149Z,11.32
2018-03-07T10:08:08.629Z,11.43
2018-03-07T10:09:08.625Z,11.5
2018-03-07T10:10:08.607Z,11.45
2018-03-07T10:11:08.111Z,11.51
2018-03-07T10:12:08.362Z,11.41
2018-03-07T10:13:08.616Z,11.43
2018-03-07T10:14:08.607Z,11.3
2018-03-07T10:15:08.508Z,11.18
2018-03-07T10:16:08.643Z,11.17
2018-03-07T10:17:10.068Z,11.17
2018-03-07T10:18:08.603Z,11.25
2018-03-07T10:19:08.606Z,11.05
2018-03-07T10:20:08.913Z,11.07
2018-03-07T10:21:08.655Z,11.17
2018-03-07T10:22:08.383Z,11.19
2018-03-07T10:23:08.341Z,11.48
2018-03-07T10:24:08.636Z,11.4
2018-03-07T10:25:08.329Z,11.4
2018-03-07T10:26:08.579Z,11.44
2018-03-07T10:27:08.586Z,11.23
2018-03-07T10:28:08.585Z,11.43
2018-03-07T10:58:06.537Z,11.37
2018-03-07T10:59:04.227Z,11.41
2018-03-07T11:00:04.329Z,11.32
2018-03-07T11:01:04.319Z,11.47
2018-03-07T11:02:04.315Z,11.4
2018-03-07T11:03:04.308Z,11.43
2018-03-07T11:04:04.096Z,11.5
2018-03-07T11:05:03.832Z,11.54
2018-03-07T11:06:04.030Z,11.6
2018-03-07T11:07:04.044Z,11.54
2018-03-07T11:08:04.019Z,11.57
2018-03-07T11:09:03.772Z,11.55
2018-03-07T11:10:03.831Z,11.57
2018-03-07T11:11:04.028Z,11.55
2018-03-07T11:12:04.005Z,11.63
2018-03-07T11:13:04.050Z,11.66
2018-03-07T11:14:04.261Z,11.73
2018-03-07T11:15:03.999Z,11.81
2018-03-07T11:16:03.992Z,11.88
2018-03-07T11:17:03.997Z,11.95
2018-03-07T11:18:04.274Z,11.81
2018-03-07T11:19:03.784Z,11.83
2018-03-07T11:20:04.240Z,11.83
2018-03-07T11:21:04.237Z,11.9
2018-03-07T11:22:03.724Z,11.86
2018-03-07T11:23:04.238Z,11.84
2018-03-07T11:24:03.971Z,11.78
2018-03-07T11:25:03.967Z,11.77
2018-03-07T11:26:04.225Z,11.7
2018-03-07T11:27:04.035Z,11.68
2018-03-07T11:28:04.165Z,11.81
2018-03-07T11:29:03.973Z,11.77
2018-03-07T11:30:03.971Z,11.88
2018-03-07T11:31:04.210Z,11.88
2018-03-07T11:32:04.208Z,11.91
2018-03-07T11:33:04.295Z,11.9
2018-03-07T11:34:03.980Z,11.83
2018-03-07T11:35:03.949Z,11.88
2018-03-07T11:36:03.942Z,11.86
2018-03-07T11:37:04.198Z,11.81
2018-03-07T11:38:03.938Z,11.83
2018-03-07T11:39:04.192Z,11.81
2018-03-07T11:40:04.199Z,11.72
2018-03-07T11:41:03.937Z,11.69
2018-03-07T11:42:04.180Z,11.9
2018-03-07T11:43:03.928Z,11.97
2018-03-07T11:44:04.184Z,12.1
2018-03-07T11:45:04.085Z,12.2
2018-03-07T11:46:04.178Z,12.2
2018-03-07T11:47:03.675Z,12.24
2018-03-07T11:48:04.041Z,12.18
2018-03-07T11:49:03.939Z,12.17
2018-03-07T11:50:03.919Z,12.09
2018-03-07T11:51:04.166Z,12.07
2018-03-07T11:52:04.172Z,12.2
2018-03-07T11:53:03.671Z,12.21
2018-03-07T11:54:04.182Z,12.25
2018-03-07T11:55:04.161Z,12.24
2018-03-07T11:56:03.913Z,12.24
2018-03-07T11:57:04.162Z,12.27
2018-03-07T11:58:04.187Z,12.27
2018-03-07T11:59:03.897Z,12.27
2018-03-07T12:00:03.902Z,12.12
2018-03-07T12:01:03.890Z,12.04
2018-03-07T12:02:04.168Z,11.99
2018-03-07T12:03:04.163Z,11.99
2018-03-07T12:04:04.136Z,11.88
2018-03-07T12:05:03.893Z,11.91
2018-03-07T12:06:04.132Z,11.81
2018-03-07T12:07:03.877Z,11.78
2018-03-07T12:08:03.876Z,11.75
2018-03-07T12:09:04.155Z,11.72
2018-03-07T12:10:04.230Z,11.91
2018-03-07T12:11:03.877Z,11.95
2018-03-07T12:12:04.149Z,12
2018-03-07T12:13:04.120Z,11.99
2018-03-07T12:14:03.928Z,12.03
2018-03-07T12:15:04.124Z,12.06
2018-03-07T12:16:04.121Z,12.15
2018-03-07T12:17:04.134Z,12.12
2018-03-07T12:18:04.117Z,12.2
2018-03-07T12:19:03.867Z,12.22
2018-03-07T12:20:04.143Z,12.28
2018-03-07T12:21:03.875Z,12.36
2018-03-07T12:22:04.120Z,12.36
2018-03-07T12:23:04.120Z,12.46
2018-03-07T12:24:04.117Z,12.37
2018-03-07T12:25:04.108Z,12.36
2018-03-07T12:26:04.116Z,12.27
2018-03-07T12:27:04.095Z,12.22
2018-03-07T12:28:04.100Z,12.18
2018-03-07T12:29:04.933Z,12.06
2018-03-07T12:30:03.618Z,12.1
2018-03-07T12:31:04.102Z,12.18
2018-03-07T12:32:04.099Z,12.24
2018-03-07T12:33:04.081Z,12.39
2018-03-07T12:34:03.860Z,12.21
2018-03-07T12:35:03.824Z,12.47
2018-03-07T12:36:03.845Z,12.49
2018-03-07T12:37:03.825Z,12.55
2018-03-07T12:38:04.094Z,12.61
2018-03-07T12:39:04.086Z,12.57
2018-03-07T12:40:03.826Z,12.57
2018-03-07T12:41:03.559Z,12.61
2018-03-07T12:42:03.814Z,12.7
2018-03-07T12:43:04.075Z,12.73
2018-03-07T12:44:03.826Z,12.76
2018-03-07T12:45:03.817Z,12.82
2018-03-07T12:46:04.086Z,12.9
2018-03-07T12:47:04.150Z,12.9
2018-03-07T12:48:03.806Z,12.83
2018-03-07T12:49:03.803Z,12.79
2018-03-07T12:50:04.080Z,12.82
2018-03-07T12:51:04.145Z,12.83
2018-03-07T12:52:03.825Z,12.86
2018-03-07T12:53:04.082Z,12.9
2018-03-07T12:54:04.080Z,12.83
2018-03-07T12:55:03.795Z,12.97
2018-03-07T12:56:03.795Z,13.01
2018-03-07T12:57:03.796Z,13
2018-03-07T12:58:04.062Z,13.04
2018-03-07T12:59:05.298Z,13
2018-03-07T13:00:03.815Z,12.91
2018-03-07T13:01:04.194Z,12.78
2018-03-07T13:02:03.790Z,12.75
2018-03-07T13:03:04.109Z,12.67
2018-03-07T13:04:03.790Z,12.8
2018-03-07T13:05:04.056Z,12.79
2018-03-07T13:06:04.056Z,12.86
2018-03-07T13:07:04.066Z,12.78
2018-03-07T13:08:03.778Z,12.83
2018-03-07T13:09:04.046Z,12.67
2018-03-07T13:10:04.046Z,12.55
2018-03-07T13:11:04.062Z,12.46
2018-03-07T13:12:04.042Z,12.42
2018-03-07T13:13:03.796Z,12.4
2018-03-07T13:14:04.037Z,12.29
2018-03-07T13:15:04.041Z,12.39
2018-03-07T13:16:04.035Z,12.29
2018-03-07T13:17:04.035Z,12.21
2018-03-07T13:18:03.785Z,12.24
2018-03-07T13:19:04.032Z,12.25
2018-03-07T13:20:04.020Z,12.07
2018-03-07T13:21:04.030Z,12.1
2018-03-07T13:22:03.507Z,12.1
2018-03-07T13:23:03.783Z,12.03
2018-03-07T13:24:04.007Z,11.95
2018-03-07T13:25:03.763Z,11.9
2018-03-07T13:26:04.015Z,11.81
2018-03-07T13:27:04.014Z,11.73
2018-03-07T13:28:04.010Z,11.75
2018-03-07T13:29:04.499Z,11.68
2018-03-07T13:30:04.006Z,11.7
2018-03-07T13:31:04.009Z,11.68
2018-03-07T13:32:03.991Z,11.66
2018-03-07T13:33:03.992Z,11.68
2018-03-07T13:34:03.996Z,11.81
2018-03-07T13:35:03.999Z,11.68
2018-03-07T13:36:03.993Z,11.69
2018-03-07T13:37:03.733Z,11.54
2018-03-07T13:38:03.469Z,11.63
2018-03-07T13:39:03.973Z,11.59
2018-03-07T13:40:03.991Z,11.59
2018-03-07T13:41:04.001Z,11.59
2018-03-07T13:42:03.709Z,11.6
2018-03-07T13:43:03.972Z,11.57
2018-03-07T13:44:03.964Z,11.73
2018-03-07T13:45:03.985Z,11.75
2018-03-07T13:46:03.718Z,11.81
2018-03-07T13:47:03.699Z,11.87
2018-03-07T13:48:03.443Z,11.91
2018-03-07T13:49:03.953Z,11.84
2018-03-07T13:50:03.694Z,11.86